EXS1564 LFPG-EGSS
Flight info
| Callsign | EXS1564 |
|---|---|
| Flight time | 0h 36m |
| Altitude | 24000 |
| Route | OPALE DCT KESAX DCT KUNAV Y8 BANVA |
| Aircraft | A21N/M-SDE2E3FGHIRWXY/LB1 |
Departure
| Time | 2026-05-08 16:26 |
|---|---|
| Airport | Charles de Gaulle International Airport (LFPG) |
Arrival
| Time | 2026-05-08 17:02 |
|---|---|
| Airport | London Stansted Airport (EGSS) |
| Time | Latitude | Longitude | Altitude | Speed | Heading |
|---|---|---|---|---|---|
| 2026-05-08 15:56 | 49.01348 | 2.55603 | 363 ft | 0 kts | 355° |
| 2026-05-08 16:16 | 49.01327 | 2.55605 | 361 ft | 4 kts | 355° |
| 2026-05-08 16:16 | 49.01300 | 2.55609 | 363 ft | 4 kts | 355° |
| 2026-05-08 16:16 | 49.01278 | 2.55614 | 363 ft | 4 kts | 335° |
| 2026-05-08 16:16 | 49.01265 | 2.55635 | 361 ft | 4 kts | 266° |
| 2026-05-08 16:17 | 49.01270 | 2.55674 | 360 ft | 4 kts | 261° |
| 2026-05-08 16:17 | 49.01271 | 2.55683 | 364 ft | 1 kts | 265° |
| 2026-05-08 16:19 | 49.01271 | 2.55678 | 360 ft | 2 kts | 265° |
| 2026-05-08 16:19 | 49.01269 | 2.55646 | 363 ft | 5 kts | 265° |
| 2026-05-08 16:19 | 49.01266 | 2.55581 | 363 ft | 8 kts | 265° |
| 2026-05-08 16:19 | 49.01261 | 2.55485 | 360 ft | 11 kts | 265° |
| 2026-05-08 16:20 | 49.01254 | 2.55362 | 363 ft | 13 kts | 265° |
| 2026-05-08 16:20 | 49.01260 | 2.55228 | 365 ft | 14 kts | 331° |
| 2026-05-08 16:20 | 49.01360 | 2.55212 | 360 ft | 15 kts | 343° |
| 2026-05-08 16:20 | 49.01470 | 2.55177 | 361 ft | 17 kts | 352° |
| 2026-05-08 16:21 | 49.01591 | 2.55159 | 362 ft | 18 kts | 355° |
| 2026-05-08 16:21 | 49.01720 | 2.55143 | 360 ft | 19 kts | 355° |
| 2026-05-08 16:21 | 49.01857 | 2.55123 | 360 ft | 20 kts | 348° |
| 2026-05-08 16:21 | 49.01944 | 2.55005 | 363 ft | 20 kts | 252° |
| 2026-05-08 16:22 | 49.01927 | 2.54789 | 365 ft | 21 kts | 271° |
| 2026-05-08 16:22 | 49.01922 | 2.54559 | 360 ft | 22 kts | 266° |
| 2026-05-08 16:22 | 49.01910 | 2.54322 | 360 ft | 23 kts | 265° |
| 2026-05-08 16:22 | 49.01897 | 2.54068 | 360 ft | 24 kts | 265° |
| 2026-05-08 16:23 | 49.01883 | 2.53803 | 363 ft | 26 kts | 265° |
| 2026-05-08 16:23 | 49.01866 | 2.53527 | 360 ft | 27 kts | 265° |
| 2026-05-08 16:23 | 49.01850 | 2.53239 | 360 ft | 28 kts | 266° |
| 2026-05-08 16:23 | 49.01836 | 2.52939 | 360 ft | 24 kts | 265° |
| 2026-05-08 16:24 | 49.01823 | 2.52699 | 360 ft | 24 kts | 265° |
| 2026-05-08 16:24 | 49.01808 | 2.52451 | 360 ft | 21 kts | 265° |
| 2026-05-08 16:24 | 49.01888 | 2.52353 | 361 ft | 17 kts | 352° |
| 2026-05-08 16:24 | 49.02009 | 2.52330 | 360 ft | 17 kts | 354° |
| 2026-05-08 16:25 | 49.02111 | 2.52350 | 364 ft | 14 kts | 54° |
| 2026-05-08 16:25 | 49.02127 | 2.52503 | 362 ft | 17 kts | 85° |
| 2026-05-08 16:25 | 49.02153 | 2.52971 | 366 ft | 77 kts | 88° |
| 2026-05-08 16:25 | 49.02216 | 2.54096 | 364 ft | 133 kts | 86° |
| 2026-05-08 16:26 | 49.02299 | 2.55723 | 402 ft | 169 kts | 84° |
| 2026-05-08 16:26 | 49.02392 | 2.57473 | 1032 ft | 164 kts | 84° |
| 2026-05-08 16:26 | 49.02484 | 2.59223 | 1580 ft | 170 kts | 84° |
| 2026-05-08 16:26 | 49.02578 | 2.61102 | 1999 ft | 186 kts | 84° |
| 2026-05-08 16:27 | 49.02683 | 2.63141 | 2516 ft | 204 kts | 84° |
| 2026-05-08 16:27 | 49.02803 | 2.65423 | 2992 ft | 230 kts | 85° |
| 2026-05-08 16:27 | 49.02936 | 2.67969 | 3496 ft | 251 kts | 85° |
| 2026-05-08 16:27 | 49.03077 | 2.70683 | 4241 ft | 260 kts | 85° |
| 2026-05-08 16:28 | 49.03266 | 2.73464 | 5081 ft | 265 kts | 77° |
| 2026-05-08 16:28 | 49.04014 | 2.76004 | 5915 ft | 269 kts | 53° |
| 2026-05-08 16:28 | 49.05416 | 2.77887 | 6743 ft | 272 kts | 28° |
| 2026-05-08 16:28 | 49.07231 | 2.78747 | 7491 ft | 277 kts | 4° |
| 2026-05-08 16:29 | 49.09148 | 2.78400 | 8262 ft | 280 kts | 339° |
| 2026-05-08 16:29 | 49.10847 | 2.76940 | 9093 ft | 282 kts | 322° |
| 2026-05-08 16:29 | 49.12407 | 2.75084 | 9956 ft | 285 kts | 320° |
| 2026-05-08 16:29 | 49.14004 | 2.73167 | 10501 ft | 301 kts | 320° |
| 2026-05-08 16:30 | 49.15727 | 2.71138 | 10840 ft | 323 kts | 321° |
| 2026-05-08 16:30 | 49.17552 | 2.69027 | 11147 ft | 344 kts | 321° |
| 2026-05-08 16:30 | 49.19515 | 2.66770 | 11447 ft | 363 kts | 321° |
| 2026-05-08 16:30 | 49.21589 | 2.64397 | 11754 ft | 380 kts | 322° |
| 2026-05-08 16:31 | 49.23765 | 2.61973 | 12110 ft | 392 kts | 323° |
| 2026-05-08 16:31 | 49.26010 | 2.59532 | 12685 ft | 397 kts | 323° |
| 2026-05-08 16:31 | 49.28278 | 2.57079 | 13288 ft | 401 kts | 323° |
| 2026-05-08 16:31 | 49.30567 | 2.54590 | 13878 ft | 404 kts | 323° |
| 2026-05-08 16:32 | 49.32854 | 2.52076 | 14380 ft | 407 kts | 323° |
| 2026-05-08 16:32 | 49.35152 | 2.49544 | 14876 ft | 410 kts | 323° |
| 2026-05-08 16:32 | 49.37486 | 2.46966 | 15368 ft | 412 kts | 323° |
| 2026-05-08 16:32 | 49.39826 | 2.44374 | 15855 ft | 415 kts | 323° |
| 2026-05-08 16:33 | 49.42173 | 2.41783 | 16324 ft | 417 kts | 323° |
| 2026-05-08 16:33 | 49.44556 | 2.39174 | 16778 ft | 420 kts | 323° |
| 2026-05-08 16:33 | 49.46918 | 2.36591 | 17209 ft | 422 kts | 323° |
| 2026-05-08 16:33 | 49.49329 | 2.33942 | 17664 ft | 424 kts | 323° |
| 2026-05-08 16:34 | 49.51740 | 2.31278 | 18107 ft | 427 kts | 323° |
| 2026-05-08 16:34 | 49.54146 | 2.28614 | 18485 ft | 430 kts | 323° |
| 2026-05-08 16:34 | 49.56590 | 2.25904 | 18876 ft | 431 kts | 323° |
| 2026-05-08 16:34 | 49.58999 | 2.23226 | 19287 ft | 432 kts | 323° |
| 2026-05-08 16:35 | 49.61442 | 2.20508 | 19744 ft | 432 kts | 323° |
| 2026-05-08 16:35 | 49.63885 | 2.17788 | 20199 ft | 432 kts | 323° |
| 2026-05-08 16:35 | 49.66329 | 2.15061 | 20665 ft | 432 kts | 323° |
| 2026-05-08 16:35 | 49.68756 | 2.12335 | 21138 ft | 433 kts | 323° |
| 2026-05-08 16:36 | 49.71194 | 2.09598 | 21629 ft | 433 kts | 323° |
| 2026-05-08 16:36 | 49.73614 | 2.06898 | 22139 ft | 434 kts | 324° |
| 2026-05-08 16:36 | 49.76066 | 2.04151 | 22552 ft | 436 kts | 323° |
| 2026-05-08 16:36 | 49.78523 | 2.01382 | 23012 ft | 438 kts | 323° |
| 2026-05-08 16:37 | 49.81000 | 1.98591 | 23506 ft | 440 kts | 324° |
| 2026-05-08 16:37 | 49.83464 | 1.95815 | 23900 ft | 440 kts | 323° |
| 2026-05-08 16:37 | 49.85948 | 1.93016 | 24065 ft | 442 kts | 324° |
| 2026-05-08 16:37 | 49.88442 | 1.90215 | 24097 ft | 443 kts | 324° |
| 2026-05-08 16:38 | 49.90906 | 1.87354 | 24092 ft | 442 kts | 322° |
| 2026-05-08 16:38 | 49.93323 | 1.84382 | 24081 ft | 442 kts | 321° |
| 2026-05-08 16:38 | 49.95740 | 1.81404 | 24067 ft | 442 kts | 321° |
| 2026-05-08 16:38 | 49.98149 | 1.78428 | 24065 ft | 442 kts | 321° |
| 2026-05-08 16:39 | 50.00560 | 1.75447 | 24064 ft | 442 kts | 322° |
| 2026-05-08 16:39 | 50.02931 | 1.72526 | 24064 ft | 442 kts | 322° |
| 2026-05-08 16:39 | 50.05380 | 1.69504 | 24064 ft | 442 kts | 322° |
| 2026-05-08 16:39 | 50.07755 | 1.66485 | 24063 ft | 443 kts | 320° |
| 2026-05-08 16:40 | 50.10067 | 1.63371 | 24065 ft | 443 kts | 319° |
| 2026-05-08 16:40 | 50.12402 | 1.60206 | 24065 ft | 443 kts | 319° |
| 2026-05-08 16:40 | 50.14733 | 1.57040 | 24067 ft | 443 kts | 319° |
| 2026-05-08 16:40 | 50.17066 | 1.53866 | 24067 ft | 443 kts | 319° |
| 2026-05-08 16:41 | 50.19171 | 1.50442 | 24064 ft | 446 kts | 309° |
| 2026-05-08 16:41 | 50.21035 | 1.46542 | 24065 ft | 448 kts | 307° |
| 2026-05-08 16:41 | 50.22870 | 1.42604 | 24063 ft | 449 kts | 307° |
| 2026-05-08 16:42 | 50.26577 | 1.34731 | 24062 ft | 447 kts | 307° |
| 2026-05-08 16:42 | 50.28427 | 1.30827 | 24066 ft | 447 kts | 307° |
| 2026-05-08 16:42 | 50.30251 | 1.26985 | 24066 ft | 447 kts | 307° |
| 2026-05-08 16:42 | 50.32106 | 1.23070 | 24067 ft | 447 kts | 307° |
| 2026-05-08 16:43 | 50.33956 | 1.19158 | 24065 ft | 447 kts | 307° |
| 2026-05-08 16:43 | 50.35816 | 1.15225 | 24074 ft | 447 kts | 307° |
| 2026-05-08 16:43 | 50.37639 | 1.11363 | 24072 ft | 447 kts | 307° |
| 2026-05-08 16:43 | 50.39500 | 1.07412 | 24072 ft | 447 kts | 307° |
| 2026-05-08 16:44 | 50.41347 | 1.03483 | 24075 ft | 447 kts | 307° |
| 2026-05-08 16:44 | 50.43167 | 0.99604 | 24081 ft | 449 kts | 307° |
| 2026-05-08 16:44 | 50.45024 | 0.95635 | 24078 ft | 449 kts | 307° |
| 2026-05-08 16:44 | 50.46873 | 0.91691 | 24068 ft | 450 kts | 307° |
| 2026-05-08 16:45 | 50.48736 | 0.87708 | 24073 ft | 451 kts | 306° |
| 2026-05-08 16:45 | 50.50593 | 0.83727 | 24077 ft | 452 kts | 306° |
| 2026-05-08 16:45 | 50.52453 | 0.79732 | 24079 ft | 452 kts | 306° |
| 2026-05-08 16:45 | 50.54359 | 0.75879 | 24075 ft | 452 kts | 311° |
| 2026-05-08 16:46 | 50.56625 | 0.72465 | 24080 ft | 452 kts | 319° |
| 2026-05-08 16:46 | 50.59025 | 0.69251 | 24081 ft | 452 kts | 319° |
| 2026-05-08 16:46 | 50.61427 | 0.66060 | 24082 ft | 452 kts | 319° |
| 2026-05-08 16:46 | 50.63842 | 0.62851 | 24082 ft | 452 kts | 319° |
| 2026-05-08 16:47 | 50.66237 | 0.59646 | 24080 ft | 453 kts | 319° |
| 2026-05-08 16:47 | 50.68641 | 0.56429 | 24083 ft | 453 kts | 319° |
| 2026-05-08 16:47 | 50.71041 | 0.53213 | 24097 ft | 452 kts | 319° |
| 2026-05-08 16:47 | 50.73417 | 0.50020 | 24110 ft | 452 kts | 319° |
| 2026-05-08 16:48 | 50.75820 | 0.46775 | 24116 ft | 452 kts | 319° |
| 2026-05-08 16:48 | 50.78213 | 0.43523 | 24129 ft | 455 kts | 318° |
| 2026-05-08 16:48 | 50.80621 | 0.40254 | 24117 ft | 456 kts | 319° |
| 2026-05-08 16:48 | 50.83012 | 0.37036 | 24111 ft | 456 kts | 319° |
| 2026-05-08 16:49 | 50.85434 | 0.33776 | 24098 ft | 456 kts | 319° |
| 2026-05-08 16:49 | 50.87815 | 0.30557 | 23832 ft | 443 kts | 319° |
| 2026-05-08 16:49 | 50.90145 | 0.27397 | 22965 ft | 439 kts | 319° |
| 2026-05-08 16:49 | 50.92458 | 0.24250 | 22324 ft | 434 kts | 319° |
| 2026-05-08 16:50 | 50.94720 | 0.21168 | 21819 ft | 432 kts | 318° |
| 2026-05-08 16:50 | 50.97001 | 0.18067 | 20772 ft | 434 kts | 319° |
| 2026-05-08 16:50 | 50.99555 | 0.15442 | 19613 ft | 441 kts | 331° |
| 2026-05-08 16:50 | 51.02416 | 0.13602 | 18627 ft | 444 kts | 344° |
| 2026-05-08 16:51 | 51.05453 | 0.12781 | 17733 ft | 442 kts | 352° |
| 2026-05-08 16:51 | 51.08479 | 0.12210 | 16930 ft | 436 kts | 353° |
| 2026-05-08 16:51 | 51.11476 | 0.11667 | 16175 ft | 430 kts | 353° |
| 2026-05-08 16:51 | 51.14395 | 0.11133 | 15622 ft | 420 kts | 352° |
| 2026-05-08 16:52 | 51.17246 | 0.10598 | 15199 ft | 404 kts | 352° |
| 2026-05-08 16:52 | 51.19983 | 0.10073 | 14608 ft | 389 kts | 352° |
| 2026-05-08 16:52 | 51.22622 | 0.09564 | 14057 ft | 374 kts | 352° |
| 2026-05-08 16:52 | 51.25177 | 0.09067 | 13325 ft | 366 kts | 352° |
| 2026-05-08 16:53 | 51.30218 | 0.08083 | 11302 ft | 366 kts | 352° |
| 2026-05-08 16:53 | 51.32742 | 0.07595 | 10376 ft | 365 kts | 352° |
| 2026-05-08 16:53 | 51.35311 | 0.07099 | 9728 ft | 354 kts | 352° |
| 2026-05-08 16:54 | 51.37612 | 0.06653 | 9113 ft | 344 kts | 351° |
| 2026-05-08 16:54 | 51.39974 | 0.06192 | 8299 ft | 340 kts | 351° |
| 2026-05-08 16:54 | 51.42350 | 0.05725 | 7457 ft | 337 kts | 352° |
| 2026-05-08 16:54 | 51.44647 | 0.05276 | 6723 ft | 331 kts | 353° |
| 2026-05-08 16:55 | 51.46892 | 0.04839 | 5946 ft | 328 kts | 353° |
| 2026-05-08 16:55 | 51.49161 | 0.04397 | 5363 ft | 327 kts | 354° |
| 2026-05-08 16:55 | 51.51423 | 0.03954 | 5116 ft | 326 kts | 354° |
| 2026-05-08 16:55 | 51.53670 | 0.03515 | 5070 ft | 325 kts | 354° |
| 2026-05-08 16:56 | 51.55851 | 0.03086 | 4620 ft | 311 kts | 354° |
| 2026-05-08 16:56 | 51.57976 | 0.02667 | 4086 ft | 301 kts | 354° |
| 2026-05-08 16:56 | 51.59994 | 0.02270 | 3609 ft | 291 kts | 354° |
| 2026-05-08 16:56 | 51.61964 | 0.01880 | 2983 ft | 287 kts | 354° |
| 2026-05-08 16:57 | 51.63950 | 0.01490 | 2366 ft | 287 kts | 355° |
| 2026-05-08 16:57 | 51.65927 | 0.01103 | 2090 ft | 280 kts | 355° |
| 2026-05-08 16:57 | 51.67791 | 0.01169 | 2007 ft | 263 kts | 12° |
| 2026-05-08 16:57 | 51.69558 | 0.01768 | 1986 ft | 259 kts | 16° |
| 2026-05-08 16:58 | 51.71304 | 0.02449 | 1987 ft | 258 kts | 21° |
| 2026-05-08 16:58 | 51.72874 | 0.03614 | 2014 ft | 244 kts | 30° |
| 2026-05-08 16:58 | 51.74315 | 0.04851 | 1994 ft | 229 kts | 31° |
| 2026-05-08 16:58 | 51.75716 | 0.06045 | 1994 ft | 228 kts | 31° |
| 2026-05-08 16:59 | 51.77116 | 0.07248 | 2011 ft | 227 kts | 31° |
| 2026-05-08 16:59 | 51.78446 | 0.08545 | 2017 ft | 218 kts | 39° |
| 2026-05-08 16:59 | 51.79572 | 0.10037 | 1997 ft | 201 kts | 48° |
| 2026-05-08 16:59 | 51.80553 | 0.11570 | 2015 ft | 191 kts | 45° |
| 2026-05-08 17:00 | 51.81463 | 0.12940 | 2027 ft | 170 kts | 46° |
| 2026-05-08 17:00 | 51.82305 | 0.14204 | 1845 ft | 160 kts | 46° |
| 2026-05-08 17:00 | 51.83106 | 0.15404 | 1657 ft | 155 kts | 47° |
| 2026-05-08 17:00 | 51.83856 | 0.16524 | 1460 ft | 138 kts | 46° |
| 2026-05-08 17:01 | 51.84554 | 0.17572 | 1265 ft | 137 kts | 48° |
| 2026-05-08 17:01 | 51.85255 | 0.18621 | 1072 ft | 136 kts | 46° |
| 2026-05-08 17:01 | 51.85956 | 0.19674 | 849 ft | 137 kts | 46° |
| 2026-05-08 17:01 | 51.86648 | 0.20692 | 689 ft | 135 kts | 47° |
| 2026-05-08 17:02 | 51.87337 | 0.21745 | 483 ft | 134 kts | 46° |
| 2026-05-08 17:02 | 51.88017 | 0.22751 | 344 ft | 132 kts | 46° |
| 2026-05-08 17:02 | 51.88563 | 0.23575 | 348 ft | 76 kts | 44° |
| 2026-05-08 17:02 | 51.88811 | 0.23989 | 348 ft | 35 kts | 54° |
| 2026-05-08 17:03 | 51.88889 | 0.24277 | 360 ft | 27 kts | 72° |
| 2026-05-08 17:03 | 51.88921 | 0.24453 | 361 ft | 10 kts | 84° |
| 2026-05-08 17:03 | 51.88886 | 0.24564 | 362 ft | 12 kts | 143° |
| 2026-05-08 17:03 | 51.88816 | 0.24661 | 364 ft | 14 kts | 130° |
| 2026-05-08 17:04 | 51.88853 | 0.24794 | 360 ft | 16 kts | 38° |
| 2026-05-08 17:04 | 51.88910 | 0.24873 | 360 ft | 10 kts | 43° |
| 2026-05-08 17:04 | 51.88965 | 0.24961 | 360 ft | 12 kts | 55° |
| 2026-05-08 17:04 | 51.88953 | 0.25048 | 365 ft | 13 kts | 130° |
| 2026-05-08 17:05 | 51.88906 | 0.25157 | 365 ft | 10 kts | 76° |
| 2026-05-08 17:05 | 51.88928 | 0.25196 | 360 ft | 3 kts | 38° |
| 2026-05-08 17:05 | 51.88944 | 0.25218 | 364 ft | 1 kts | 41° |
| 2026-05-08 17:05 | 51.88947 | 0.25222 | 361 ft | 0 kts | 42° |